Airfield :
LOGIN :

Register | Disclaimer

   EN    FR    IT 

 










Legend :    VFR   Marginal VFR   IFR   Intensive IFR   Very Intensive IFR
Visi :
Ceiling :
>= 8 km
>= 3000ft
5 to 8 km
1000 to 3000 ft
1500m to 5 km
500 to 1000 ft
800 to 1500m
200 to 500 ft
< 800m
< 200 ft
Symbols :   Thunderstorms  Fog  Heavy snow  Heavy precipitations  Wind > 20 kt
SIGMETs :     Misc.  Thunderstorms  Icing  Turbulence  Mountain Waves  Volcanic Ashes







- Airport Elevation : 1260 ft
- IATA code : LDE
- Download approach charts


LFBT - Tarbes / Ossun

CURRENT METAR :
  • 131430Z AUTO 22009KT 190V250 9000 RA SCT014 BKN021 BKN028 09/08 Q1004 TEMPO 26015G25KT 4000 RA BKN010

EXPIRED METARs :
  • 131400Z AUTO VRB04KT 7000 RA BKN009 OVC039 09/08 Q1005 TEMPO 26015G25KT 4000 RA BKN010
  • 131330Z AUTO VRB02KT 5000 -RA BR FEW006 BKN013 BKN024 09/08 Q1005 TEMPO 26015G25KT RA
  • 131300Z AUTO VRB02KT 5000 RA BR SCT003 OVC016 09/08 Q1005 TEMPO 26015G25KT BKN010
  • 131230Z AUTO 33003KT 5000 -RA BR OVC018 09/08 Q1005 TEMPO 26015G25KT RA BKN010
  • 131200Z AUTO 36002KT 9000 -RA SCT025 OVC036 09/08 Q1005 TEMPO 26015G25KT 4000 RA BKN010

TAF TAF LFBT
Valid from the 13 at 12:00 until the 14 at 12:00 UTC


131100Z 1312/1412 VRB02KT 9999 BKN035
BECMG 1312/1313 26010KT
PROB40
TEMPO 1312/1412 26015G25KT 4000 RA BKN010
PROB30
TEMPO 1400/1403 2000 SHRA BKN014 BKN030TCU
No reported NOTAMs for that airfield.



MET'MAP, your aeronautical weather chart ! - Copyright ORBIFLY December 2007 - Disclaimer

ORBIFLY MET'MAP TEAM :

Programming & Development : Alexandra Zaïnal
Concept & Development : Baudouin d'Aumeries
Co-Development & Prog : Marc-Olivier Méhu
Technical & hardware support : Manuel Goepfert

Contact : metmap@orbifly.com




SOURCES & CREDITS :

   NOAA